Historyczne dane pomiarowe

Dodano dane terminowe – wersja testowa.

Dane z okresu 1951-2019

Wersja bazy: 1.34 [2019-03-16, lista zmian], aktualizacja planowana na 2019-04-15

Dane meteo z obszaru Polski uzyskane na podstawie danych udostępnionych przez Instytut Meteorologii i Gospodarki Wodnej – Państwowy Instytut Badawczy.

 

Wybierz Datę:    

       

TemperaturaWilgotnośćWiatrCiśnienieOpadyŚniegCzas trwania zjawisk
 Stacja t tx tn tng RH VA  wxwx mslp ppp RRR   cm mm wxwxwxwxwxwxwx
1961-08-14 13.1 18.7 6.9 4.9 81.0- 1.7 1.3---- 0.0------------
1961-08-13 13.1 15.3 12.1 13.4 90.5- 6.3 2.7---- 17.3------------
1961-08-12 17.8 24.3 14.6 11.6 86.0- 6.0 4.0---- 29.3------------
1961-08-11 23.5 32.1 17.8 14.2 76.3- 2.0 2.7---- 0.0------------
1961-08-10 23.9 29.3 19.2 16.3 86.5- 0.7 3.0---- 0.0------------
1961-08-09 23.4 29.6 13.6 11.3 76.3- 6.3 1.3---- 6.7------------
1961-08-08 18.1 22.4 15.4 16.1 86.5- 5.3 3.7---- 0.0------------
1961-08-07 23.0 31.7 13.9 10.4 70.8- 3.3 2.3---- 1.6------------
1961-08-06 23.3 31.3 12.4 8.7 65.5- 0.7 2.3---- 0.0------------
1961-08-05 19.0 24.4 14.6 11.9 73.0- 4.0 2.3---- 0.0------------
1961-08-04 17.1 21.7 9.0 5.5 66.8- 3.7 1.0---- 0.0------------
1961-08-03 17.8 22.6 13.2 10.0 76.3- 6.7 4.0---- 0.1------------
1961-08-02 19.3 27.1 8.3 4.7 70.5- 1.3 1.3---- 0.0------------
1961-08-01 15.6 21.6 9.9 10.3 72.3- 1.7 3.3---- 0.0------------
1961-07-31 13.3 15.3 11.3 10.5 92.8- 7.7 5.3---- 9.3------------
1961-07-30 11.9 13.5 11.2 11.2 89.5- 8.0 4.7---- 28.5------------
1961-07-29 14.2 19.0 12.2 14.9 90.8- 8.0 3.7---- 14.6------------
1961-07-28 20.4 26.1 15.4 14.0 74.3- 7.0 4.0---- 22.8------------
1961-07-27 20.3 27.3 10.8 7.2 75.0- 4.3 3.0---- 0.7------------
1961-07-26 17.2 22.7 9.7 9.4 65.8- 2.7 3.0---- 0.0------------
1961-07-25 13.9 16.1 10.9 9.2 72.0- 7.7 3.3---- 0.0------------
1961-07-24 14.6 19.4 11.9 9.7 73.5- 5.7 4.0---- 0.0------------
1961-07-23 16.3 20.6 11.9 8.0 76.3- 6.7 2.7---- 0.0------------
1961-07-22 14.4 18.9 11.7 8.9 84.8- 6.0 3.7---- 2.4------------
1961-07-21 15.5 19.1 9.4 7.1 80.8- 7.0 3.7---- 4.2------------
1961-07-20 15.2 19.6 8.0 6.7 86.3- 7.7 1.7---- 5.1------------
1961-07-19 16.0 21.0 10.2 7.1 73.5- 5.7 3.7---- 0.9------------
1961-07-18 15.1 20.1 9.4 5.9 72.3- 3.7 3.0---- 0.0------------
1961-07-17 15.2 21.6 13.8 10.8 76.8- 4.0 4.7---- 7.2------------
1961-07-16 17.6 22.0 14.9 14.3 73.3- 5.3 4.0---- 0.0------------
1961-07-15 19.2 24.2 11.7 7.1 70.5- 4.3 2.0---- 8.6------------
1961-07-14 15.2 20.5 13.1 10.2 65.8- 3.0 4.7---- 0.0------------
1961-07-13 20.6 29.5 12.9 9.6 71.0- 2.7 5.3---- 12.7------------
1961-07-12 20.8 28.6 10.7 9.7 72.8- 3.3 2.3---- 0.0------------
1961-07-11 16.9 21.9 9.7 5.9 67.3- 4.3 3.0---- 0.0------------
1961-07-10 15.0 19.7 10.3 7.0 69.3- 5.3 4.0---- 2.9------------
1961-07-09 15.7 22.6 8.2 4.7 76.3- 4.0 4.7---- 2.2------------
1961-07-08 14.9 21.5 5.8 4.6 69.3- 2.7 1.3---- 0.0------------
1961-07-07 13.1 18.3 10.2 7.3 73.8- 5.0 2.3---- 0.0------------
1961-07-06 13.1 16.4 7.6 5.1 67.8- 5.7 2.3---- 0.0------------
1961-07-05 14.9 20.3 13.4 12.9 74.0- 5.3 4.0---- 0.0------------
1961-07-04 22.4 30.2 15.3 13.0 70.8- 3.3 3.0---- 5.6------------
1961-07-03 22.8 31.2 12.4 8.7 65.8- 0.0 0.7---- 0.0------------
1961-07-02 21.0 27.7 10.7 9.3 64.3- 0.0 1.0---- 0.0------------
1961-07-01 19.5 26.5 11.6 8.4 72.0- 1.0 2.0---- 0.0------------
1961-06-30 18.0 23.4 9.0 6.9 70.8- 1.0 0.7---- 0.0------------
1961-06-29 15.1 21.5 8.0 6.9 75.0- 1.7 3.7---- 0.0------------
1961-06-28 14.5 19.5 11.3 12.9 75.0- 5.3 5.0---- 5.0------------
1961-06-27 22.9 32.9 13.9 11.3 76.3- 2.0 1.7---- 21.8------------
1961-06-26 22.5 31.5 12.7 9.9 74.0- 4.0 1.7---- 3.2------------
1961-06-25 22.2 30.1 9.9 7.7 58.5- 0.0 3.7---- 0.0------------
1961-06-24 18.9 26.1 11.1 8.1 64.5- 4.7 4.0---- 0.0------------
1961-06-23 18.9 24.4 15.9 13.5 70.0- 4.0 3.3---- 0.0------------
1961-06-22 18.5 26.3 9.9 3.5 70.8- 2.3 3.0---- 2.4------------
1961-06-21 17.2 24.7 5.9 4.5 61.3- 0.3 2.0---- 0.0------------
1961-06-20 15.0 21.4 11.8 11.2 64.0- 4.0 4.0---- 0.0------------
1961-06-19 20.4 28.2 13.0 9.5 68.3- 4.0 3.3---- 0.0------------
1961-06-18 19.5 26.7 8.8 5.5 65.8- 1.0 3.0---- 0.0------------
1961-06-17 15.9 23.1 6.6 4.6 68.3- 0.3 2.3---- 0.0------------
1961-06-16 13.9 20.1 8.6 5.6 69.5- 1.0 4.0---- 0.0------------
378.7 ms

 

Źródłem pochodzenia danych jest Instytut Meteorologii i Gospodarki Wodnej – Państwowy Instytut Badawczy. Dane Instytutu Meteorologii i Gospodarki Wodnej – Państwowego Instytutu Badawczego zostały przetworzone.

Dane źródłowe można odnaleźć na stronie https://dane.imgw.pl